This is the latest recevied weather packets stored in our database for station/object W7PLC. If no packets are shown the sender has not sent any weather packets the latest 10 day(s).
| Time | Temp. | Humidity | Pressure | Rain* | Wind** | Luminosity | Snow |
|---|---|---|---|---|---|---|---|
| 1777482723 | 15.56° C | 69% | 1023.4 hPa | 0 mm | - | 520 W/m² | - |
| 1777482419 | 15° C | 70% | 1023.3 hPa | 0 mm | - | 487 W/m² | - |
| 1777482116 | 14.44° C | 73% | 1023.4 hPa | 0 mm | - | 494 W/m² | - |
| 1777481814 | 15° C | 71% | 1023.7 hPa | 0 mm | - | 472 W/m² | - |
| 1777481511 | 15° C | 70% | 1023.4 hPa | 0 mm | - | 438 W/m² | - |
| 1777481207 | 14.44° C | 73% | 1023.6 hPa | 0 mm | - | 377 W/m² | - |
| 1777480904 | 14.44° C | 72% | 1023.4 hPa | 0 mm | - | 366 W/m² | - |
| 1777480601 | 13.89° C | 75% | 1023.6 hPa | 0 mm | - | 374 W/m² | - |
| 1777480298 | 13.89° C | 76% | 1023.4 hPa | 0 mm | - | 407 W/m² | - |
| 1777479994 | 13.89° C | 74% | 1023.8 hPa | 0 mm | - | 275 W/m² | - |
| 1777479691 | 13.33° C | 76% | 1023.7 hPa | 0 mm | - | 121 W/m² | - |
| 1777479389 | 12.78° C | 77% | 1023.8 hPa | 0 mm | - | 177 W/m² | - |
| 1777479085 | 13.33° C | 78% | 1023.6 hPa | 0 mm | - | 340 W/m² | - |
| 1777478782 | 12.78° C | 78% | 1023.9 hPa | 0 mm | - | 312 W/m² | - |
| 1777478478 | 13.33° C | 77% | 1024 hPa | 0 mm | - | 309 W/m² | - |
| 1777478175 | 12.78° C | 80% | 1023.9 hPa | 0 mm | - | 264 W/m² | - |
| 1777477871 | 12.22° C | 82% | 1024.1 hPa | 0 mm | - | 253 W/m² | - |
| 1777477566 | 11.67° C | 83% | 1024 hPa | 0 mm | - | 295 W/m² | - |
| 1777477263 | 12.22° C | 81% | 1024 hPa | 0 mm | - | 256 W/m² | - |
| 1777476960 | 11.67° C | 85% | 1024.1 hPa | 0 mm | - | 217 W/m² | - |
| 1777476658 | 11.11° C | 85% | 1024.2 hPa | 0 mm | - | 216 W/m² | - |
| 1777476354 | 11.11° C | 86% | 1024 hPa | 0 mm | - | 212 W/m² | - |
| 1777476050 | 11.11° C | 86% | 1024 hPa | 0 mm | - | 198 W/m² | - |
| 1777475746 | 10.56° C | 87% | 1024.2 hPa | 0 mm | - | 38 W/m² | - |
| 1777475443 | 10° C | 90% | 1024 hPa | 0 mm | - | 36 W/m² | - |
* Rain latest hour (hover to see other rain measurements)
** Current wind speed in m/s (hover to see current wind gust speed)